^^
WoodinvilleWX Historical Data
Daily Summary for October 07, 2017 Units:  Metric    English   Both
Daily Weekly Monthly Yearly Custom
  High: Low: Average:
Temperature: 12.7 °C 8.1 °C 9.9 °C
Dew Point: 11.3 °C 6.8 °C 8.7 °C
Humidity: 93% 87% 92%
Wind Speed: 6.4km/h 0km/h 0km/h
Wind Gust: 8km/h - -
Wind- - SE
Pressure: 1016.5 hPa 1012.8 hPa -
Precipitation: 18.8 mm    
Historical Graphs
 
 
Tabular Data for October 07, 2017
Time Temperature Dew Point Pressure Wind Wind Speed Wind Gust Humidity Rainfall Rate (Hourly)
00:00 11.9 °C 10.3 °C 1012.8 hPa Calm   3.2 km/h 90% 1.78 mm
00:03 11.6 °C 10 °C 1012.8 hPa Calm     90% 2.03 mm
00:05 11.5 °C 9.9 °C 1012.8 hPa Calm     90% 2.29 mm
00:10 11.2 °C 9.8 °C 1012.8 hPa Calm     91% 2.79 mm
00:13 10.9 °C 9.6 °C 1012.8 hPa Calm     91% 2.79 mm
00:18 10.8 °C 9.6 °C 1012.8 hPa Calm     92% 3.05 mm
00:20 10.8 °C 9.6 °C 1012.8 hPa Calm     92% 3.05 mm
00:23 10.7 °C 9.5 °C 1012.8 hPa Calm     92% 3.81 mm
00:25 10.7 °C 9.4 °C 1012.8 hPa Calm     92% 3.81 mm
00:29 10.6 °C 9.3 °C 1012.8 hPa Calm     92% 4.06 mm
00:30 10.6 °C 9.3 °C 1012.8 hPa Calm     92% 4.06 mm
00:34 10.4 °C 9.2 °C 1012.8 hPa Calm     92% 4.32 mm
00:35 10.4 °C 9.2 °C 1012.8 hPa Calm     92% 4.32 mm
00:39 10.4 °C 9.2 °C 1012.8 hPa Calm     92% 4.32 mm
00:40 10.4 °C 9.2 °C 1012.8 hPa Calm     92% 4.57 mm
00:44 10.4 °C 9.2 °C 1012.8 hPa Calm     92% 4.57 mm
00:45 10.4 °C 9.2 °C 1012.8 hPa Calm     92% 4.57 mm
00:49 10.3 °C 9.1 °C 1012.8 hPa Calm     92% 4.57 mm
00:50 10.3 °C 9.1 °C 1012.8 hPa Calm     92% 4.57 mm
00:54 10.3 °C 9.1 °C 1012.8 hPa Calm     92% 4.06 mm
00:55 10.3 °C 9.1 °C 1012.8 hPa Calm     92% 4.06 mm
00:59 10.3 °C 9.1 °C 1012.8 hPa Calm     92% 3.56 mm
01:00 10.3 °C 9.1 °C 1012.8 hPa Calm     92% 3.56 mm
01:04 10.3 °C 9.1 °C 1012.8 hPa Calm     92% 3.3 mm
01:05 10.3 °C 9.1 °C 1012.8 hPa Calm     92% 3.3 mm
01:09 10.2 °C 8.9 °C 1012.8 hPa Calm     92% 3.05 mm
01:10 10.2 °C 8.9 °C 1012.8 hPa Calm     92% 3.05 mm
01:14 10.1 °C 8.9 °C 1012.8 hPa Calm     92% 2.54 mm
01:15 10.1 °C 8.9 °C 1012.8 hPa Calm     92% 2.54 mm
01:19 10.1 °C 8.8 °C 1012.8 hPa Calm     92% 2.79 mm
01:20 10.1 °C 8.8 °C 1012.8 hPa Calm     92% 2.79 mm
01:24 10.1 °C 8.8 °C 1012.8 hPa Calm     92% 2.03 mm
01:25 10.1 °C 8.8 °C 1012.8 hPa Calm     92% 2.54 mm
01:29 9.9 °C 8.7 °C 1012.8 hPa Calm     92% 1.78 mm
01:30 9.9 °C 8.7 °C 1012.8 hPa Calm   1.6 km/h 92% 2.03 mm
01:34 9.9 °C 8.7 °C 1012.8 hPa SE 3.2 km/h 3.2 km/h 92% 2.03 mm
01:39 9.8 °C 8.6 °C 1012.8 hPa Calm     92% 2.03 mm
01:40 9.8 °C 8.6 °C 1012.8 hPa Calm   3.2 km/h 92% 2.29 mm
01:44 9.8 °C 8.6 °C 1012.8 hPa Calm     92% 2.29 mm
01:45 9.8 °C 8.6 °C 1012.8 hPa Calm     92% 2.29 mm
01:49 9.7 °C 8.5 °C 1012.8 hPa Calm   1.6 km/h 92% 2.79 mm
01:50 9.7 °C 8.5 °C 1012.8 hPa Calm   3.2 km/h 92% 2.79 mm
01:54 9.7 °C 8.4 °C 1012.8 hPa Calm     92% 2.79 mm
01:55 9.7 °C 8.4 °C 1012.8 hPa Calm   3.2 km/h 92% 3.05 mm
01:59 9.7 °C 8.4 °C 1012.8 hPa Calm   1.6 km/h 92% 2.79 mm
02:00 9.7 °C 8.4 °C 1012.8 hPa SE 1.6 km/h 1.6 km/h 92% 2.79 mm
02:05 9.7 °C 8.3 °C 1013.1 hPa Calm     91% 3.05 mm
02:10 9.6 °C 8.4 °C 1013.1 hPa Calm     92% 2.79 mm
02:15 9.6 °C 8.4 °C 1013.1 hPa Calm     92% 3.05 mm
02:20 9.6 °C 8.4 °C 1013.1 hPa Calm     92% 2.79 mm
02:25 9.6 °C 8.3 °C 1013.1 hPa Calm     92% 2.79 mm
02:30 9.5 °C 8.1 °C 1013.1 hPa Calm     91% 2.54 mm
02:35 9.5 °C 8.1 °C 1013.1 hPa Calm     91% 2.03 mm
02:40 9.5 °C 8.1 °C 1013.1 hPa Calm     91% 1.78 mm
02:45 9.6 °C 8.2 °C 1013.1 hPa Calm     91% 1.52 mm
02:50 9.6 °C 8.2 °C 1013.1 hPa Calm     91% 1.02 mm
02:55 9.5 °C 8.1 °C 1013.1 hPa Calm     91% 0.76 mm
03:00 9.5 °C 8.1 °C 1013.1 hPa Calm     91% 0.76 mm
03:04 9.5 °C 8.1 °C 1013.1 hPa Calm   1.6 km/h 91% 0.76 mm
03:05 9.5 °C 8.1 °C 1013.1 hPa Calm   1.6 km/h 91% 0.76 mm
03:09 9.5 °C 8.1 °C 1013.1 hPa Calm     91% 0.51 mm
03:14 9.5 °C 8.1 °C 1012.8 hPa Calm     91% 0.25 mm
03:15 9.6 °C 8.2 °C 1013.1 hPa Calm     91% 0.51 mm
03:19 9.5 °C 8.1 °C 1012.8 hPa Calm     91% 0.25 mm
03:20 9.6 °C 8.2 °C 1012.8 hPa Calm     91% 0.25 mm
03:24 9.6 °C 8.2 °C 1013.1 hPa Calm     91% 0.25 mm
03:25 9.6 °C 8.2 °C 1012.8 hPa Calm     91% 0.25 mm
03:29 9.6 °C 8.2 °C 1013.1 hPa Calm     91% 0.25 mm
03:30 9.6 °C 8.2 °C 1013.1 hPa Calm     91% 0.25 mm
03:34 9.6 °C 8.2 °C 1013.1 hPa Calm     91% 0.25 mm
03:35 9.6 °C 8.2 °C 1013.1 hPa Calm     91% 0.25 mm
03:44 9.5 °C 8.3 °C 1013.1 hPa Calm     92% 0.25 mm
03:45 9.5 °C 8.3 °C 1013.1 hPa Calm   3.2 km/h 92% 0.25 mm
03:50 9.5 °C 8.3 °C 1013.1 hPa Calm     92% 0.25 mm
03:55 9.5 °C 8.3 °C 1013.1 hPa Calm     92% 0.25 mm
04:00 9.4 °C 8.2 °C 1013.1 hPa Calm     92% 0.25 mm
04:05 9.4 °C 8.1 °C 1013.4 hPa Calm     91% 0.25 mm
04:10 9.4 °C 8.1 °C 1013.4 hPa Calm     91% 0 mm
04:15 9.4 °C 8.1 °C 1013.4 hPa Calm     91% 0.25 mm
04:20 9.4 °C 8.1 °C 1013.4 hPa Calm     91% 0.25 mm
04:25 9.4 °C 8.2 °C 1013.4 hPa Calm     92% 0.25 mm
04:30 9.4 °C 8.2 °C 1013.4 hPa Calm     92% 0.25 mm
04:35 9.4 °C 8.2 °C 1013.4 hPa Calm     92% 0.25 mm
04:40 9.4 °C 8.1 °C 1013.8 hPa Calm     91% 0.25 mm
04:45 9.4 °C 8 °C 1013.8 hPa Calm     91% 0.25 mm
04:50 9.3 °C 7.9 °C 1013.8 hPa Calm     91% 0.25 mm
04:55 9.3 °C 7.9 °C 1013.8 hPa Calm     91% 0.25 mm
05:00 9.4 °C 8 °C 1013.8 hPa Calm     91% 0.25 mm
05:05 9.4 °C 8 °C 1013.8 hPa Calm     91% 0.25 mm
05:06 9.4 °C 8 °C 1013.8 hPa Calm     91% 0.25 mm
05:10 9.4 °C 8 °C 1013.8 hPa Calm     91% 0.25 mm
05:11 9.4 °C 8 °C 1013.8 hPa Calm     91% 0.25 mm
05:15 9.4 °C 8 °C 1013.8 hPa Calm     91% 0.25 mm
05:16 9.4 °C 8 °C 1013.8 hPa Calm     91% 0 mm
05:20 9.4 °C 8 °C 1014.1 hPa Calm     91% 0 mm
05:21 9.4 °C 8 °C 1013.8 hPa Calm     91% 0 mm
05:25 9.4 °C 8 °C 1014.1 hPa Calm     91% 0 mm
05:26 9.4 °C 8 °C 1014.1 hPa Calm     91% 0 mm
05:30 9.4 °C 8 °C 1014.1 hPa Calm     91% 0 mm
05:31 9.4 °C 8 °C 1014.1 hPa Calm     91% 0 mm
05:36 9.4 °C 8 °C 1014.1 hPa Calm     91% 0 mm
05:40 9.4 °C 8 °C 1013.8 hPa Calm     91% 0 mm
05:41 9.4 °C 8 °C 1014.1 hPa Calm     91% 0 mm
05:45 9.4 °C 8 °C 1014.1 hPa Calm     91% 0 mm
05:46 9.4 °C 8 °C 1014.1 hPa Calm     91% 0 mm
05:50 9.4 °C 8 °C 1014.1 hPa Calm     91% 0 mm
05:51 9.4 °C 8 °C 1014.1 hPa Calm     91% 0 mm
05:55 9.3 °C 7.9 °C 1014.1 hPa Calm     91% 0 mm
05:56 9.4 °C 8 °C 1014.1 hPa Calm   3.2 km/h 91% 0 mm
06:00 9.4 °C 8 °C 1014.1 hPa Calm   3.2 km/h 91% 0 mm
06:02 9.3 °C 7.9 °C 1014.1 hPa Calm     91% 0 mm
06:05 9.3 °C 7.9 °C 1014.1 hPa Calm     91% 0 mm
06:07 9.3 °C 7.9 °C 1013.8 hPa Calm     91% 0 mm
06:10 9.3 °C 7.9 °C 1013.8 hPa Calm     91% 0 mm
06:12 9.3 °C 7.9 °C 1013.8 hPa Calm     91% 0 mm
06:15 9.3 °C 7.9 °C 1013.8 hPa Calm     91% 0 mm
06:17 9.3 °C 7.9 °C 1014.1 hPa Calm     91% 0 mm
06:20 9.3 °C 7.9 °C 1014.1 hPa Calm     91% 0 mm
06:22 9.3 °C 7.9 °C 1014.1 hPa Calm     91% 0 mm
06:25 9.3 °C 7.9 °C 1014.1 hPa Calm     91% 0 mm
06:27 9.3 °C 7.9 °C 1014.1 hPa Calm     91% 0 mm
06:30 9.3 °C 7.9 °C 1014.1 hPa Calm     91% 0 mm
06:32 9.3 °C 7.9 °C 1014.1 hPa Calm     91% 0 mm
06:35 9.2 °C 7.8 °C 1014.1 hPa Calm     91% 0 mm
06:37 9.3 °C 7.9 °C 1014.1 hPa Calm     91% 0 mm
06:40 9.2 °C 7.8 °C 1014.1 hPa Calm     91% 0 mm
06:42 9.2 °C 7.8 °C 1014.1 hPa Calm     91% 0 mm
06:45 9.3 °C 7.9 °C 1014.1 hPa Calm     91% 0 mm
06:47 9.2 °C 7.8 °C 1013.8 hPa Calm     91% 0 mm
06:50 9.2 °C 7.8 °C 1014.1 hPa Calm     91% 0 mm
06:52 9.2 °C 7.8 °C 1014.1 hPa Calm     91% 0 mm
06:55 9.2 °C 7.8 °C 1014.1 hPa Calm     91% 0 mm
06:57 9.2 °C 7.9 °C 1013.8 hPa Calm     92% 0 mm
07:00 9.1 °C 7.9 °C 1013.8 hPa Calm     92% 0 mm
07:02 9.1 °C 7.9 °C 1014.1 hPa Calm     92% 0 mm
07:05 9.1 °C 7.9 °C 1014.1 hPa Calm     92% 0 mm
07:07 9 °C 7.8 °C 1014.1 hPa Calm     92% 0 mm
07:10 9 °C 7.8 °C 1014.1 hPa Calm     92% 0 mm
07:12 8.9 °C 7.7 °C 1014.1 hPa Calm     92% 0 mm
07:15 8.9 °C 7.7 °C 1014.1 hPa Calm     92% 0 mm
07:17 8.8 °C 7.6 °C 1014.1 hPa Calm     92% 0 mm
07:20 8.8 °C 7.6 °C 1014.1 hPa Calm     92% 0 mm
07:22 8.8 °C 7.6 °C 1013.8 hPa Calm     92% 0 mm
07:25 8.8 °C 7.6 °C 1013.8 hPa Calm     92% 0 mm
07:27 8.8 °C 7.6 °C 1013.8 hPa Calm     92% 0 mm
07:30 8.8 °C 7.6 °C 1013.8 hPa Calm     92% 0 mm
07:35 8.8 °C 7.4 °C 1014.1 hPa Calm     91% 0 mm
07:37 8.8 °C 7.4 °C 1014.1 hPa Calm     91% 0 mm
07:40 8.8 °C 7.4 °C 1014.1 hPa Calm     91% 0 mm
07:43 8.8 °C 7.4 °C 1014.1 hPa Calm     91% 0 mm
07:45 8.8 °C 7.4 °C 1014.1 hPa Calm     91% 0 mm
07:48 8.8 °C 7.4 °C 1014.1 hPa Calm     91% 0 mm
07:50 8.8 °C 7.4 °C 1014.1 hPa Calm     91% 0 mm
07:53 8.8 °C 7.4 °C 1014.1 hPa Calm     91% 0 mm
07:55 8.9 °C 7.5 °C 1014.1 hPa Calm     91% 0 mm
07:58 8.9 °C 7.3 °C 1014.1 hPa Calm     90% 0 mm
08:00 8.9 °C 7.3 °C 1014.1 hPa Calm     90% 0 mm
08:03 8.9 °C 7.4 °C 1014.1 hPa Calm     90% 0 mm
08:05 8.9 °C 7.6 °C 1014.1 hPa Calm     91% 0 mm
08:08 8.9 °C 7.6 °C 1014.1 hPa Calm     91% 0 mm
08:10 8.9 °C 7.6 °C 1014.1 hPa Calm     91% 0 mm
08:13 8.9 °C 7.6 °C 1014.1 hPa Calm     91% 0 mm
08:15 8.9 °C 7.6 °C 1014.1 hPa Calm     91% 0 mm
08:18 8.9 °C 7.6 °C 1014.1 hPa Calm     91% 0 mm
08:20 8.9 °C 7.6 °C 1014.1 hPa Calm     91% 0 mm
08:23 9 °C 7.6 °C 1014.4 hPa Calm     91% 0 mm
08:25 9 °C 7.6 °C 1014.4 hPa Calm     91% 0 mm
08:30 9.1 °C 7.5 °C 1014.4 hPa Calm     90% 0 mm
08:33 9.1 °C 7.6 °C 1014.4 hPa Calm     90% 0 mm
08:35 9.1 °C 7.6 °C 1014.4 hPa Calm     90% 0 mm
08:38 9.2 °C 7.6 °C 1014.4 hPa Calm     90% 0 mm
08:40 9.2 °C 7.6 °C 1014.4 hPa Calm     90% 0 mm
08:43 9.2 °C 7.7 °C 1014.4 hPa Calm     90% 0 mm
08:45 9.2 °C 7.7 °C 1014.4 hPa Calm     90% 0 mm
08:48 9.3 °C 7.7 °C 1014.4 hPa Calm     90% 0 mm
08:50 9.3 °C 7.9 °C 1014.4 hPa Calm     91% 0 mm
08:53 9.3 °C 7.9 °C 1014.4 hPa Calm     91% 0 mm
08:55 9.3 °C 7.9 °C 1014.4 hPa Calm     91% 0 mm
08:56 9.3 °C 7.9 °C 1014.4 hPa Calm     91% 0 mm
09:00 9.4 °C 8 °C 1014.4 hPa Calm     91% 0 mm
09:01 9.4 °C 8 °C 1014.4 hPa Calm     91% 0 mm
09:05 9.4 °C 8.1 °C 1014.8 hPa Calm     91% 0 mm
09:06 9.5 °C 7.9 °C 1014.8 hPa Calm     90% 0 mm
09:10 9.5 °C 8.1 °C 1014.8 hPa Calm     91% 0 mm
09:11 9.6 °C 8.2 °C 1014.8 hPa Calm     91% 0 mm
09:15 9.6 °C 8.2 °C 1014.8 hPa Calm     91% 0 mm
09:16 9.6 °C 8.2 °C 1014.8 hPa Calm     91% 0 mm
09:20 9.6 °C 8.2 °C 1014.8 hPa Calm     91% 0 mm
09:21 9.7 °C 8.1 °C 1014.8 hPa Calm     90% 0 mm
09:25 9.7 °C 8.2 °C 1014.8 hPa Calm     90% 0 mm
09:26 9.7 °C 8.2 °C 1014.8 hPa Calm     90% 0 mm
09:30 9.7 °C 8.3 °C 1014.8 hPa Calm     91% 0 mm
09:31 9.8 °C 8.4 °C 1014.4 hPa Calm     91% 0 mm
09:35 9.8 °C 8.4 °C 1014.4 hPa Calm     91% 0 mm
09:36 9.8 °C 8.4 °C 1014.8 hPa Calm     91% 0 mm
09:40 9.8 °C 8.6 °C 1014.8 hPa Calm     92% 0 mm
09:41 9.8 °C 8.6 °C 1014.8 hPa Calm     92% 0 mm
09:45 9.8 °C 8.6 °C 1014.8 hPa Calm     92% 0 mm
09:46 9.8 °C 8.4 °C 1014.8 hPa Calm     91% 0 mm
09:50 9.9 °C 8.5 °C 1014.8 hPa Calm     91% 0 mm
09:52 9.9 °C 8.6 °C 1014.8 hPa Calm   6.4 km/h 91% 0 mm
09:55 9.9 °C 8.7 °C 1014.8 hPa Calm   6.4 km/h 92% 0 mm
09:57 9.9 °C 8.9 °C 1014.8 hPa Calm   8 km/h 93% 0 mm
10:00 10 °C 8.8 °C 1014.8 hPa Calm   8 km/h 92% 0 mm
10:02 10.1 °C 8.8 °C 1014.8 hPa Calm   1.6 km/h 92% 0 mm
10:05 10.1 °C 8.8 °C 1014.8 hPa Calm   1.6 km/h 92% 0 mm
10:07 10.1 °C 8.8 °C 1015.1 hPa Calm   1.6 km/h 92% 0 mm
10:10 10.1 °C 8.8 °C 1015.1 hPa Calm   1.6 km/h 92% 0 mm
10:12 10.1 °C 8.8 °C 1015.1 hPa Calm     92% 0 mm
10:15 10.2 °C 8.9 °C 1015.1 hPa Calm   1.6 km/h 92% 0 mm
10:17 10.2 °C 9.1 °C 1015.1 hPa Calm     93% 0 mm
10:20 10.3 °C 9.1 °C 1015.1 hPa Calm     92% 0 mm
10:22 10.3 °C 9.1 °C 1015.1 hPa Calm     92% 0 mm
10:25 10.3 °C 9.3 °C 1015.1 hPa Calm   3.2 km/h 93% 0 mm
10:27 10.4 °C 9.3 °C 1015.1 hPa Calm     93% 0 mm
10:30 10.4 °C 9.3 °C 1015.1 hPa Calm     93% 0 mm
10:32 10.5 °C 9.3 °C 1015.1 hPa Calm   1.6 km/h 92% 0 mm
10:35 10.6 °C 9.4 °C 1015.1 hPa Calm   1.6 km/h 93% 0 mm
10:37 10.6 °C 9.4 °C 1015.1 hPa Calm   1.6 km/h 93% 0 mm
10:40 10.6 °C 9.6 °C 1015.1 hPa Calm   1.6 km/h 93% 0 mm
10:42 10.7 °C 9.6 °C 1015.1 hPa Calm   1.6 km/h 93% 0 mm
10:45 10.7 °C 9.6 °C 1015.1 hPa Calm   1.6 km/h 93% 0 mm
10:47 10.8 °C 9.7 °C 1015.1 hPa SSE 6.4 km/h 8 km/h 93% 0 mm
10:50 10.9 °C 9.8 °C 1015.1 hPa Calm   8 km/h 93% 0 mm
10:52 10.9 °C 9.9 °C 1015.1 hPa ESE 1.6 km/h 3.2 km/h 93% 0 mm
10:55 10.9 °C 9.9 °C 1015.1 hPa Calm   3.2 km/h 93% 0 mm
10:57 10.9 °C 9.9 °C 1015.1 hPa Calm   1.6 km/h 93% 0 mm
11:00 11 °C 9.9 °C 1015.1 hPa ESE 1.6 km/h 1.6 km/h 93% 0 mm
11:02 11.1 °C 9.9 °C 1015.1 hPa Calm   1.6 km/h 93% 0 mm
11:05 11.1 °C 9.9 °C 1015.1 hPa Calm   1.6 km/h 93% 0 mm
11:08 11.1 °C 10 °C 1015.1 hPa Calm   6.4 km/h 93% 0 mm
11:10 11.1 °C 9.9 °C 1015.1 hPa Calm   6.4 km/h 92% 0 mm
11:13 11.2 °C 10.1 °C 1015.1 hPa Calm   3.2 km/h 93% 0 mm
11:18 11.2 °C 10.1 °C 1015.1 hPa Calm   3.2 km/h 93% 0 mm
11:20 11.2 °C 10.1 °C 1015.1 hPa Calm   4.8 km/h 93% 0 mm
11:23 11.2 °C 10.1 °C 1015.1 hPa Calm     93% 0 mm
11:25 11.2 °C 10.1 °C 1015.1 hPa Calm     93% 0 mm
11:28 11.2 °C 9.9 °C 1015.1 hPa Calm   3.2 km/h 92% 0 mm
11:30 11.2 °C 9.9 °C 1015.1 hPa Calm   3.2 km/h 92% 0 mm
11:33 11.2 °C 10.1 °C 1015.1 hPa SE 1.6 km/h 1.6 km/h 93% 0 mm
11:35 11.2 °C 9.9 °C 1015.1 hPa SE 3.2 km/h 8 km/h 92% 0 mm
11:38 11.2 °C 10 °C 1015.1 hPa Calm   3.2 km/h 92% 0 mm
11:40 11.2 °C 10.1 °C 1015.1 hPa Calm   3.2 km/h 93% 0 mm
11:45 11.2 °C 10 °C 1015.1 hPa Calm   3.2 km/h 92% 0 mm
11:48 11.2 °C 10.1 °C 1015.1 hPa Calm     93% 0 mm
11:50 11.3 °C 10.2 °C 1015.1 hPa Calm     93% 0 mm
11:53 11.3 °C 10.2 °C 1015.1 hPa Calm     93% 0 mm
11:55 11.3 °C 10.2 °C 1015.1 hPa Calm     93% 0 mm
11:58 11.4 °C 10.3 °C 1015.1 hPa Calm     93% 0 mm
12:00 11.4 °C 10.3 °C 1015.1 hPa Calm     93% 0 mm
12:03 11.5 °C 10.4 °C 1015.1 hPa Calm     93% 0 mm
12:05 11.5 °C 10.4 °C 1015.1 hPa Calm     93% 0 mm
12:08 11.4 °C 10.3 °C 1015.1 hPa Calm     93% 0 mm
12:10 11.5 °C 10.4 °C 1015.1 hPa Calm     93% 0 mm
12:13 11.7 °C 10.4 °C 1015.1 hPa Calm   1.6 km/h 92% 0 mm
12:15 11.7 °C 10.6 °C 1015.1 hPa Calm   1.6 km/h 93% 0 mm
12:18 11.9 °C 10.8 °C 1015.1 hPa Calm     93% 0 mm
12:20 11.9 °C 10.7 °C 1015.1 hPa Calm     92% 0 mm
12:23 12.1 °C 10.8 °C 1015.1 hPa Calm     92% 0 mm
12:25 12.2 °C 10.9 °C 1015.1 hPa Calm     92% 0 mm
12:28 12.4 °C 10.9 °C 1014.8 hPa Calm     91% 0 mm
12:30 12.4 °C 10.9 °C 1014.8 hPa Calm     91% 0 mm
12:33 12.4 °C 11 °C 1015.1 hPa SE 3.2 km/h 6.4 km/h 91% 0 mm
12:35 12.4 °C 10.5 °C 1015.1 hPa ENE 1.6 km/h 6.4 km/h 88% 0 mm
12:40 12.3 °C 10.4 °C 1014.8 hPa SE 1.6 km/h 3.2 km/h 88% 0 mm
12:44 12.4 °C 10.3 °C 1014.8 hPa Calm   3.2 km/h 87% 0 mm
12:45 12.4 °C 10.3 °C 1014.8 hPa Calm   3.2 km/h 87% 0 mm
12:49 12.6 °C 11.3 °C 1014.8 hPa Calm   1.6 km/h 92% 0 mm
12:54 12.7 °C 11.3 °C 1014.8 hPa Calm     91% 0 mm
12:59 12.6 °C 11.2 °C 1014.8 hPa Calm   1.6 km/h 91% 0 mm
13:04 12.7 °C 11.2 °C 1014.8 hPa Calm     91% 0 mm
13:09 12.7 °C 11.2 °C 1014.8 hPa ESE 3.2 km/h 3.2 km/h 91% 0 mm
13:14 12.7 °C 10.9 °C 1014.8 hPa Calm   3.2 km/h 89% 0 mm
13:19 12.6 °C 11.2 °C 1014.8 hPa Calm     91% 0 mm
13:24 12.4 °C 10.5 °C 1014.8 hPa Calm     88% 0 mm
13:29 12.3 °C 10.7 °C 1014.8 hPa Calm     90% 0 mm
13:34 12 °C 10.6 °C 1014.4 hPa Calm     91% 0 mm
13:40 11.9 °C 10.6 °C 1014.4 hPa Calm     92% 0 mm
13:45 11.9 °C 10.6 °C 1014.4 hPa Calm     92% 0 mm
13:50 11.9 °C 10.8 °C 1014.4 hPa Calm     93% 0 mm
13:55 12 °C 10.9 °C 1014.4 hPa Calm     93% 0 mm
14:00 12.1 °C 11 °C 1014.4 hPa Calm     93% 0 mm
14:05 12.2 °C 10.9 °C 1014.1 hPa Calm     92% 0 mm
14:10 12.3 °C 11 °C 1014.1 hPa Calm     92% 0 mm
14:15 12.4 °C 11.1 °C 1014.1 hPa Calm     92% 0 mm
14:20 12.4 °C 10.9 °C 1014.1 hPa Calm     91% 0 mm
14:25 12.4 °C 11.2 °C 1014.1 hPa Calm     92% 0 mm
14:30 12.5 °C 11.2 °C 1014.1 hPa Calm     92% 0 mm
14:35 12.4 °C 11.2 °C 1014.1 hPa Calm     92% 0 mm
14:40 12.4 °C 10.9 °C 1013.8 hPa Calm     91% 0 mm
14:45 12.3 °C 11 °C 1013.8 hPa Calm     92% 0 mm
14:50 12.2 °C 10.9 °C 1013.8 hPa Calm     92% 0.25 mm
14:55 12.1 °C 10.8 °C 1013.8 hPa Calm     92% 0.25 mm
15:01 12 °C 10.7 °C 1014.1 hPa Calm     92% 0.51 mm
15:06 11.9 °C 10.6 °C 1014.1 hPa Calm     92% 1.27 mm
15:11 11.8 °C 10.7 °C 1014.4 hPa Calm     93% 4.32 mm
15:21 11.6 °C 10.4 °C 1014.4 hPa Calm     93% 7.87 mm
15:26 11.4 °C 10.3 °C 1014.4 hPa Calm     93% 9.4 mm
15:31 11.3 °C 10.2 °C 1014.1 hPa Calm     93% 9.65 mm
15:36 11.2 °C 10.1 °C 1014.1 hPa Calm     93% 9.91 mm
15:41 11.1 °C 10 °C 1013.8 hPa Calm     93% 10.16 mm
15:46 11.1 °C 9.9 °C 1014.1 hPa Calm     93% 10.41 mm
15:51 11.1 °C 9.8 °C 1014.1 hPa Calm     92% 10.41 mm
15:56 11.1 °C 9.9 °C 1014.1 hPa Calm     92% 10.16 mm
16:01 11 °C 9.9 °C 1014.1 hPa Calm     93% 10.16 mm
16:06 10.9 °C 9.8 °C 1013.8 hPa Calm     93% 9.4 mm
16:11 10.8 °C 9.7 °C 1013.8 hPa Calm     93% 6.86 mm
16:16 10.8 °C 9.7 °C 1013.8 hPa Calm     93% 4.57 mm
16:21 10.8 °C 9.6 °C 1013.8 hPa Calm     92% 3.3 mm
16:26 10.8 °C 9.6 °C 1013.8 hPa Calm     92% 1.02 mm
16:31 10.7 °C 9.6 °C 1013.8 hPa Calm     93% 1.02 mm
16:36 10.7 °C 9.6 °C 1013.8 hPa Calm     93% 0.76 mm
16:41 10.6 °C 9.4 °C 1013.8 hPa Calm     93% 0.51 mm
16:47 10.5 °C 9.4 °C 1014.1 hPa Calm     93% 0 mm
16:52 10.3 °C 9.3 °C 1014.1 hPa Calm     93% 0.25 mm
16:57 10.3 °C 9.1 °C 1014.1 hPa Calm     92% 0.51 mm
17:02 10.3 °C 9.1 °C 1014.1 hPa Calm     92% 0.76 mm
17:07 10.3 °C 9.1 °C 1014.1 hPa Calm     92% 0.76 mm
17:12 10.4 °C 9.2 °C 1013.8 hPa Calm     92% 0.76 mm
17:17 10.4 °C 9.2 °C 1013.8 hPa Calm     92% 0.76 mm
17:22 10.4 °C 9 °C 1013.8 hPa Calm     91% 0.76 mm
17:27 10.4 °C 9.1 °C 1013.8 hPa Calm     91% 0.76 mm
17:32 10.4 °C 9.2 °C 1014.1 hPa Calm     92% 0.76 mm
17:33 10.4 °C 9.2 °C 1014.1 hPa Calm     92% 0.76 mm
17:38 10.3 °C 9.1 °C 1014.1 hPa Calm     92% 0.76 mm
17:43 10.3 °C 9.1 °C 1014.1 hPa Calm     92% 0.76 mm
17:48 10.3 °C 9.2 °C 1014.1 hPa Calm     93% 0.76 mm
17:54 10.2 °C 9.1 °C 1014.1 hPa Calm     93% 0.76 mm
17:59 10.1 °C 9 °C 1014.1 hPa Calm     93% 0.51 mm
18:04 10 °C 8.9 °C 1014.1 hPa Calm     93% 0 mm
18:09 9.9 °C 8.9 °C 1014.1 hPa Calm     93% 0 mm
18:14 9.9 °C 8.8 °C 1014.1 hPa Calm     93% 0 mm
18:19 9.8 °C 8.8 °C 1014.1 hPa Calm     93% 0 mm
18:24 9.8 °C 8.7 °C 1014.1 hPa Calm     93% 0 mm
18:29 9.7 °C 8.7 °C 1014.1 hPa Calm     93% 0 mm
18:34 9.6 °C 8.6 °C 1013.8 hPa Calm     93% 0 mm
18:39 9.6 °C 8.5 °C 1013.8 hPa Calm     93% 0 mm
18:44 9.5 °C 8.4 °C 1013.8 hPa Calm     93% 0 mm
18:49 9.4 °C 8.4 °C 1014.1 hPa Calm     93% 0 mm
18:54 9.4 °C 8.2 °C 1014.1 hPa Calm     92% 0 mm
18:58 9.3 °C 8.3 °C 1014.1 hPa Calm     93% 0 mm
19:03 9.3 °C 8.1 °C 1014.1 hPa Calm     92% 0 mm
19:08 9.2 °C 8 °C 1014.1 hPa Calm     92% 0 mm
19:13 9.2 °C 8.1 °C 1014.1 hPa Calm     93% 0 mm
19:18 9.1 °C 8 °C 1014.1 hPa Calm     93% 0 mm
19:29 8.9 °C 7.7 °C 1014.1 hPa Calm     92% 0 mm
19:34 8.9 °C 7.7 °C 1014.1 hPa Calm     92% 0 mm
19:39 8.9 °C 7.7 °C 1014.1 hPa Calm     92% 0 mm
19:44 8.9 °C 7.7 °C 1014.1 hPa Calm     92% 0 mm
19:49 8.8 °C 7.6 °C 1014.1 hPa Calm     92% 0 mm
19:54 8.7 °C 7.5 °C 1014.1 hPa Calm     92% 0 mm
19:59 8.7 °C 7.6 °C 1014.4 hPa Calm     93% 0 mm
20:04 8.6 °C 7.3 °C 1014.4 hPa Calm     92% 0 mm
20:09 8.5 °C 7.3 °C 1014.4 hPa Calm     92% 0 mm
20:14 8.5 °C 7.3 °C 1014.4 hPa Calm     92% 0 mm
20:19 8.5 °C 7.3 °C 1014.4 hPa Calm     92% 0 mm
20:24 8.5 °C 7.3 °C 1014.4 hPa Calm     92% 0 mm
20:28 8.5 °C 7.1 °C 1014.4 hPa Calm     91% 0 mm
20:33 8.5 °C 7.1 °C 1014.8 hPa Calm     91% 0 mm
20:38 8.6 °C 7.2 °C 1014.8 hPa Calm     91% 0 mm
20:44 8.6 °C 7.2 °C 1014.8 hPa Calm     91% 0 mm
20:49 8.6 °C 7.2 °C 1014.8 hPa Calm     91% 0 mm
20:54 8.4 °C 7.2 °C 1014.8 hPa Calm     92% 0 mm
20:59 8.4 °C 7.2 °C 1014.8 hPa Calm     92% 0 mm
21:04 8.3 °C 7.1 °C 1014.8 hPa Calm     92% 0 mm
21:09 8.3 °C 7.1 °C 1014.8 hPa Calm     92% 0 mm
21:14 8.3 °C 7.1 °C 1015.1 hPa Calm     92% 0 mm
21:19 8.3 °C 7.1 °C 1015.1 hPa Calm     92% 0 mm
21:24 8.2 °C 7 °C 1015.1 hPa Calm     92% 0 mm
21:29 8.2 °C 7 °C 1015.1 hPa Calm     92% 0 mm
21:34 8.2 °C 6.8 °C 1015.1 hPa Calm     91% 0 mm
21:39 8.2 °C 6.8 °C 1015.5 hPa Calm     91% 0 mm
21:44 8.2 °C 6.8 °C 1015.5 hPa Calm     91% 0 mm
21:49 8.3 °C 6.9 °C 1015.5 hPa Calm     91% 0 mm
21:54 8.3 °C 6.9 °C 1015.5 hPa Calm     91% 0 mm
21:59 8.2 °C 6.8 °C 1015.8 hPa Calm     91% 0 mm
22:05 8.2 °C 7 °C 1015.8 hPa Calm     92% 0 mm
22:10 8.2 °C 7 °C 1015.8 hPa Calm     92% 0 mm
22:15 8.2 °C 7 °C 1015.8 hPa Calm     92% 0 mm
22:20 8.2 °C 7 °C 1015.8 hPa Calm     92% 0 mm
22:25 8.2 °C 7 °C 1015.8 hPa Calm     92% 0 mm
22:30 8.2 °C 6.9 °C 1015.8 hPa Calm     92% 0 mm
22:40 8.2 °C 6.9 °C 1015.8 hPa Calm     92% 0.25 mm
22:46 8.1 °C 6.9 °C 1016.1 hPa Calm     92% 0.25 mm
22:51 8.1 °C 6.9 °C 1015.8 hPa Calm     92% 0.51 mm
23:01 8.1 °C 6.9 °C 1016.1 hPa Calm     92% 0.51 mm
23:06 8.1 °C 6.9 °C 1016.1 hPa Calm     92% 0.51 mm
23:11 8.1 °C 6.8 °C 1016.1 hPa Calm     92% 0.51 mm
23:16 8.1 °C 6.9 °C 1016.1 hPa Calm     92% 0.51 mm
23:21 8.1 °C 6.9 °C 1016.1 hPa Calm     92% 0.51 mm
23:26 8.1 °C 6.9 °C 1016.1 hPa Calm     92% 0.51 mm
23:31 8.1 °C 6.9 °C 1016.5 hPa Calm     92% 0.51 mm
23:36 8.1 °C 6.9 °C 1016.5 hPa Calm     92% 0.51 mm
23:41 8.1 °C 6.9 °C 1016.5 hPa Calm     92% 0.51 mm
23:45 8.1 °C 6.9 °C 1016.5 hPa Calm     92% 0.25 mm
23:50 8.1 °C 6.9 °C 1016.5 hPa Calm     92% 0 mm
23:51 8.1 °C 6.9 °C 1016.5 hPa Calm     92% 0 mm
23:56 8.1 °C 6.9 °C 1016.5 hPa Calm     92% 0 mm
Woodinville, Washington USA
Compliments of Weather Underground - 4 mb